PWSweather.com
Personal Weather Stations
Station Observations
KVAGLENALL
West Henrico, Glen Allen, VA 23060-6503

West HenricoGlen Allen, VA 23060-6503

Lat: 37.6554, Lon: -77.5693

Elevation: 273

Station Type: Davis Vantage Pro II

www.glenallenweather.com

High Low Average
Temperature 61.2°F16.2°C 42.3°F5.7°C 50.9°F10.5°C
Dew Point 42.4°F5.8°C 32.1°F0.1°C 37.8°F3.2°C
Winds 16.0 mph 25.7 kmh Calm Calm 5.0 mph SSW8.0 kmh SSW
Wind Gusts 19.2 mph30.9 kmh 3.0 mph4.8 kmh 10.0 mph16.1 kmh
Humidity 74% 45% 62%
Pressure 30.25 in1024.4 mb 29.97 in1014.9 mb -
Precipitation 0.00 in0.0 mm - -
Hour Temp Dew Point Humidity Winds Wind Gusts Pressure Precip Precip Rate Daily Precip Total
12:00 AM 44.7°F7.1°C 32.1°F0.1°C 61% 7.0 mph S11.3 kmh S 11.1 mph17.9 kmh 30.25 in1024.4 mb 0.00 in0.0 mm 0.00 in0.0 mm 0.00 in0.0 mm
12:15 AM 44.7°F7.1°C 32.5°F0.3°C 62% 5.0 mph S8.0 kmh S 6.1 mph9.8 kmh 30.24 in1024.0 mb 0.00 in0.0 mm 0.00 in0.0 mm 0.00 in0.0 mm
12:30 AM 44.5°F6.9°C 32.7°F0.4°C 63% 2.0 mph S3.2 kmh S 9.1 mph14.6 kmh 30.25 in1024.4 mb 0.00 in0.0 mm 0.00 in0.0 mm 0.00 in0.0 mm
12:45 AM 44.1°F6.7°C 33.1°F0.6°C 65% 5.0 mph SE8.0 kmh SE 7.1 mph11.4 kmh 30.25 in1024.4 mb 0.00 in0.0 mm 0.00 in0.0 mm 0.00 in0.0 mm
01:00 AM 43.7°F6.5°C 33.1°F0.6°C 66% 2.0 mph S3.2 kmh S 7.1 mph11.4 kmh 30.24 in1024.0 mb 0.00 in0.0 mm 0.00 in0.0 mm 0.00 in0.0 mm
01:15 AM 43.6°F6.4°C 33.4°F0.8°C 67% 4.0 mph SE6.4 kmh SE 8.1 mph13.0 kmh 30.23 in1023.7 mb 0.00 in0.0 mm 0.00 in0.0 mm 0.00 in0.0 mm
01:30 AM 43.5°F6.4°C 33.3°F0.7°C 67% 6.0 mph S9.7 kmh S 10.1 mph16.3 kmh 30.24 in1024.0 mb 0.00 in0.0 mm 0.00 in0.0 mm 0.00 in0.0 mm
02:00 AM 43.1°F6.2°C 32.9°F0.5°C 67% 6.0 mph S9.7 kmh S 8.1 mph13.0 kmh 30.25 in1024.4 mb 0.00 in0.0 mm 0.00 in0.0 mm 0.00 in0.0 mm
02:15 AM 42.8°F6.0°C 33.0°F0.6°C 68% 1.0 mph SSW1.6 kmh SSW 7.1 mph11.4 kmh 30.24 in1024.0 mb 0.00 in0.0 mm 0.00 in0.0 mm 0.00 in0.0 mm
02:30 AM 42.6°F5.9°C 33.2°F0.7°C 69% 4.0 mph SSW6.4 kmh SSW 5.1 mph8.2 kmh 30.22 in1023.4 mb 0.00 in0.0 mm 0.00 in0.0 mm 0.00 in0.0 mm
02:45 AM 42.5°F5.8°C 33.4°F0.8°C 70% 3.0 mph S4.8 kmh S 10.1 mph16.3 kmh 30.21 in1023.0 mb 0.00 in0.0 mm 0.00 in0.0 mm 0.00 in0.0 mm
03:00 AM 42.3°F5.7°C 33.6°F0.9°C 71% 2.0 mph S3.2 kmh S 6.1 mph9.8 kmh 30.20 in1022.7 mb 0.00 in0.0 mm 0.00 in0.0 mm 0.00 in0.0 mm
03:15 AM 42.5°F5.8°C 33.8°F1.0°C 71% 5.0 mph S8.0 kmh S 7.1 mph11.4 kmh 30.20 in1022.7 mb 0.00 in0.0 mm 0.00 in0.0 mm 0.00 in0.0 mm
03:30 AM 42.4°F5.8°C 34.0°F1.1°C 72% 2.0 mph SSW3.2 kmh SSW 6.1 mph9.8 kmh 30.20 in1022.7 mb 0.00 in0.0 mm 0.00 in0.0 mm 0.00 in0.0 mm
03:45 AM 42.5°F5.8°C 34.5°F1.4°C 73% 5.0 mph SW8.0 kmh SW 7.1 mph11.4 kmh 30.19 in1022.4 mb 0.00 in0.0 mm 0.00 in0.0 mm 0.00 in0.0 mm
04:00 AM 42.7°F5.9°C 34.7°F1.5°C 73% Calm Calm 4.0 mph6.4 kmh 30.19 in1022.4 mb 0.00 in0.0 mm 0.00 in0.0 mm 0.00 in0.0 mm
04:15 AM 42.8°F6.0°C 34.8°F1.6°C 73% 3.0 mph S4.8 kmh S 3.0 mph4.8 kmh 30.19 in1022.4 mb 0.00 in0.0 mm 0.00 in0.0 mm 0.00 in0.0 mm
04:30 AM 43.0°F6.1°C 35.3°F1.8°C 74% 1.0 mph S1.6 kmh S 7.1 mph11.4 kmh 30.18 in1022.0 mb 0.00 in0.0 mm 0.00 in0.0 mm 0.00 in0.0 mm
04:45 AM 43.3°F6.3°C 35.3°F1.8°C 73% 4.0 mph SW6.4 kmh SW 7.1 mph11.4 kmh 30.19 in1022.4 mb 0.00 in0.0 mm 0.00 in0.0 mm 0.00 in0.0 mm
05:00 AM 43.8°F6.6°C 35.7°F2.1°C 73% 6.0 mph SSW9.7 kmh SSW 10.1 mph16.3 kmh 30.19 in1022.4 mb 0.00 in0.0 mm 0.00 in0.0 mm 0.00 in0.0 mm
05:15 AM 44.0°F6.7°C 35.9°F2.2°C 73% 5.0 mph SSW8.0 kmh SSW 7.1 mph11.4 kmh 30.19 in1022.4 mb 0.00 in0.0 mm 0.00 in0.0 mm 0.00 in0.0 mm
05:30 AM 44.1°F6.7°C 35.7°F2.1°C 72% 3.0 mph S4.8 kmh S 5.1 mph8.2 kmh 30.20 in1022.7 mb 0.00 in0.0 mm 0.00 in0.0 mm 0.00 in0.0 mm
05:45 AM 44.1°F6.7°C 36.0°F2.2°C 73% 4.0 mph SSW6.4 kmh SSW 6.1 mph9.8 kmh 30.20 in1022.7 mb 0.00 in0.0 mm 0.00 in0.0 mm 0.00 in0.0 mm
06:00 AM 44.0°F6.7°C 36.3°F2.4°C 74% 2.0 mph S3.2 kmh S 6.1 mph9.8 kmh 30.20 in1022.7 mb 0.00 in0.0 mm 0.00 in0.0 mm 0.00 in0.0 mm
06:15 AM 44.1°F6.7°C 36.4°F2.4°C 74% 1.0 mph S1.6 kmh S 5.1 mph8.2 kmh 30.20 in1022.7 mb 0.00 in0.0 mm 0.00 in0.0 mm 0.00 in0.0 mm
06:30 AM 44.6°F7.0°C 36.5°F2.5°C 73% 4.0 mph SSW6.4 kmh SSW 8.1 mph13.0 kmh 30.20 in1022.7 mb 0.00 in0.0 mm 0.00 in0.0 mm 0.00 in0.0 mm
06:45 AM 44.6°F7.0°C 36.5°F2.5°C 73% 5.0 mph S8.0 kmh S 8.1 mph13.0 kmh 30.20 in1022.7 mb 0.00 in0.0 mm 0.00 in0.0 mm 0.00 in0.0 mm
07:00 AM 45.0°F7.2°C 36.6°F2.6°C 72% 3.0 mph SSW4.8 kmh SSW 11.1 mph17.9 kmh 30.20 in1022.7 mb 0.00 in0.0 mm 0.00 in0.0 mm 0.00 in0.0 mm
07:15 AM 45.1°F7.3°C 36.7°F2.6°C 72% 2.0 mph S3.2 kmh S 9.1 mph14.6 kmh 30.20 in1022.7 mb 0.00 in0.0 mm 0.00 in0.0 mm 0.00 in0.0 mm
07:30 AM 45.2°F7.3°C 37.1°F2.8°C 73% 5.0 mph SSW8.0 kmh SSW 7.1 mph11.4 kmh 30.20 in1022.7 mb 0.00 in0.0 mm 0.00 in0.0 mm 0.00 in0.0 mm
07:45 AM 45.3°F7.4°C 36.8°F2.7°C 72% 5.0 mph SSW8.0 kmh SSW 8.1 mph13.0 kmh 30.20 in1022.7 mb 0.00 in0.0 mm 0.00 in0.0 mm 0.00 in0.0 mm
08:00 AM 45.7°F7.6°C 36.9°F2.7°C 71% 7.0 mph S11.3 kmh S 12.1 mph19.5 kmh 30.19 in1022.4 mb 0.00 in0.0 mm 0.00 in0.0 mm 0.00 in0.0 mm
08:15 AM 46.0°F7.8°C 37.2°F2.9°C 71% 9.0 mph SW14.5 kmh SW 11.1 mph17.9 kmh 30.19 in1022.4 mb 0.00 in0.0 mm 0.00 in0.0 mm 0.00 in0.0 mm
08:30 AM 46.3°F7.9°C 37.1°F2.8°C 70% 6.0 mph SW9.7 kmh SW 12.1 mph19.5 kmh 30.19 in1022.4 mb 0.00 in0.0 mm 0.00 in0.0 mm 0.00 in0.0 mm
08:45 AM 46.7°F8.2°C 37.5°F3.1°C 70% 4.0 mph S6.4 kmh S 7.1 mph11.4 kmh 30.18 in1022.0 mb 0.00 in0.0 mm 0.00 in0.0 mm 0.00 in0.0 mm
09:00 AM 47.3°F8.5°C 37.3°F2.9°C 68% 6.0 mph SSW9.7 kmh SSW 14.1 mph22.7 kmh 30.17 in1021.7 mb 0.00 in0.0 mm 0.00 in0.0 mm 0.00 in0.0 mm
09:15 AM 48.0°F8.9°C 37.6°F3.1°C 67% 3.0 mph SSW4.8 kmh SSW 5.1 mph8.2 kmh 30.17 in1021.7 mb 0.00 in0.0 mm 0.00 in0.0 mm 0.00 in0.0 mm
09:30 AM 48.3°F9.1°C 37.5°F3.1°C 66% 4.0 mph SW6.4 kmh SW 9.1 mph14.6 kmh 30.17 in1021.7 mb 0.00 in0.0 mm 0.00 in0.0 mm 0.00 in0.0 mm
09:45 AM 48.7°F9.3°C 37.9°F3.3°C 66% 3.0 mph SSE4.8 kmh SSE 9.1 mph14.6 kmh 30.17 in1021.7 mb 0.00 in0.0 mm 0.00 in0.0 mm 0.00 in0.0 mm
10:00 AM 49.2°F9.6°C 38.4°F3.6°C 66% 11.0 mph SSW17.7 kmh SSW 13.1 mph21.1 kmh 30.17 in1021.7 mb 0.00 in0.0 mm 0.00 in0.0 mm 0.00 in0.0 mm
10:15 AM 50.6°F10.3°C 38.8°F3.8°C 64% 6.0 mph SW9.7 kmh SW 13.1 mph21.1 kmh 30.16 in1021.3 mb 0.00 in0.0 mm 0.00 in0.0 mm 0.00 in0.0 mm
10:30 AM 51.4°F10.8°C 38.8°F3.8°C 62% 7.0 mph SW11.3 kmh SW 12.1 mph19.5 kmh 30.16 in1021.3 mb 0.00 in0.0 mm 0.00 in0.0 mm 0.00 in0.0 mm
10:45 AM 52.7°F11.5°C 39.2°F4.0°C 60% 5.0 mph SW8.0 kmh SW 15.1 mph24.3 kmh 30.15 in1021.0 mb 0.00 in0.0 mm 0.00 in0.0 mm 0.00 in0.0 mm
11:00 AM 53.4°F11.9°C 39.4°F4.1°C 59% 12.0 mph S19.3 kmh S 19.2 mph30.9 kmh 30.14 in1020.7 mb 0.00 in0.0 mm 0.00 in0.0 mm 0.00 in0.0 mm
11:15 AM 54.4°F12.4°C 40.8°F4.9°C 60% 7.0 mph SSW11.3 kmh SSW 11.1 mph17.9 kmh 30.14 in1020.7 mb 0.00 in0.0 mm 0.00 in0.0 mm 0.00 in0.0 mm
11:30 AM 56.5°F13.6°C 41.0°F5.0°C 56% 6.0 mph S9.7 kmh S 11.1 mph17.9 kmh 30.14 in1020.7 mb 0.00 in0.0 mm 0.00 in0.0 mm 0.00 in0.0 mm
11:45 AM 57.6°F14.2°C 40.1°F4.5°C 52% 9.0 mph WSW14.5 kmh WSW 12.1 mph19.5 kmh 30.13 in1020.3 mb 0.00 in0.0 mm 0.00 in0.0 mm 0.00 in0.0 mm
12:00 PM 59.4°F15.2°C 41.3°F5.2°C 51% 4.0 mph SW6.4 kmh SW 15.1 mph24.3 kmh 30.13 in1020.3 mb 0.00 in0.0 mm 0.00 in0.0 mm 0.00 in0.0 mm
12:15 PM 60.7°F15.9°C 40.4°F4.7°C 47% 16.0 mph SW25.7 kmh SW 17.2 mph27.7 kmh 30.12 in1020.0 mb 0.00 in0.0 mm 0.00 in0.0 mm 0.00 in0.0 mm
12:30 PM 60.3°F15.7°C 39.5°F4.2°C 46% 4.0 mph WSW6.4 kmh WSW 13.1 mph21.1 kmh 30.11 in1019.6 mb 0.00 in0.0 mm 0.00 in0.0 mm 0.00 in0.0 mm
12:45 PM 59.9°F15.5°C 39.1°F3.9°C 46% 14.0 mph WSW22.5 kmh WSW 14.1 mph22.7 kmh 30.11 in1019.6 mb 0.00 in0.0 mm 0.00 in0.0 mm 0.00 in0.0 mm
01:00 PM 59.1°F15.1°C 37.8°F3.2°C 45% 8.0 mph SW12.9 kmh SW 19.2 mph30.9 kmh 30.09 in1019.0 mb 0.00 in0.0 mm 0.00 in0.0 mm 0.00 in0.0 mm
01:15 PM 59.8°F15.4°C 40.1°F4.5°C 48% 6.0 mph W9.7 kmh W 9.1 mph14.6 kmh 30.07 in1018.3 mb 0.00 in0.0 mm 0.00 in0.0 mm 0.00 in0.0 mm
01:30 PM 59.6°F15.3°C 40.4°F4.7°C 49% 3.0 mph SE4.8 kmh SE 10.1 mph16.3 kmh 30.07 in1018.3 mb 0.00 in0.0 mm 0.00 in0.0 mm 0.00 in0.0 mm
01:45 PM 59.1°F15.1°C 39.4°F4.1°C 48% 5.0 mph WSW8.0 kmh WSW 12.1 mph19.5 kmh 30.06 in1017.9 mb 0.00 in0.0 mm 0.00 in0.0 mm 0.00 in0.0 mm
02:00 PM 60.0°F15.6°C 40.3°F4.6°C 48% 7.0 mph SW11.3 kmh SW 11.1 mph17.9 kmh 30.04 in1017.3 mb 0.00 in0.0 mm 0.00 in0.0 mm 0.00 in0.0 mm
02:15 PM 61.2°F16.2°C 40.3°F4.6°C 46% 6.0 mph SW9.7 kmh SW 13.1 mph21.1 kmh 30.04 in1017.3 mb 0.00 in0.0 mm 0.00 in0.0 mm 0.00 in0.0 mm
02:30 PM 60.3°F15.7°C 40.6°F4.8°C 48% 10.0 mph SSW16.1 kmh SSW 13.1 mph21.1 kmh 30.04 in1017.3 mb 0.00 in0.0 mm 0.00 in0.0 mm 0.00 in0.0 mm
02:45 PM 59.9°F15.5°C 40.7°F4.8°C 49% 6.0 mph SW9.7 kmh SW 8.1 mph13.0 kmh 30.04 in1017.3 mb 0.00 in0.0 mm 0.00 in0.0 mm 0.00 in0.0 mm
03:00 PM 59.8°F15.4°C 41.7°F5.4°C 51% 1.0 mph SW1.6 kmh SW 5.1 mph8.2 kmh 30.03 in1016.9 mb 0.00 in0.0 mm 0.00 in0.0 mm 0.00 in0.0 mm
03:15 PM 59.8°F15.4°C 40.6°F4.8°C 49% 3.0 mph SW4.8 kmh SW 12.1 mph19.5 kmh 30.02 in1016.6 mb 0.00 in0.0 mm 0.00 in0.0 mm 0.00 in0.0 mm
03:30 PM 59.6°F15.3°C 41.0°F5.0°C 50% 6.0 mph SSW9.7 kmh SSW 11.1 mph17.9 kmh 30.02 in1016.6 mb 0.00 in0.0 mm 0.00 in0.0 mm 0.00 in0.0 mm
03:45 PM 59.8°F15.4°C 41.1°F5.1°C 50% 6.0 mph SW9.7 kmh SW 7.1 mph11.4 kmh 30.00 in1015.9 mb 0.00 in0.0 mm 0.00 in0.0 mm 0.00 in0.0 mm
04:00 PM 60.0°F15.6°C 41.3°F5.2°C 50% 4.0 mph SW6.4 kmh SW 8.1 mph13.0 kmh 30.00 in1015.9 mb 0.00 in0.0 mm 0.00 in0.0 mm 0.00 in0.0 mm
04:15 PM 59.9°F15.5°C 42.3°F5.7°C 52% 4.0 mph WSW6.4 kmh WSW 6.1 mph9.8 kmh 30.00 in1015.9 mb 0.00 in0.0 mm 0.00 in0.0 mm 0.00 in0.0 mm
04:30 PM 59.3°F15.2°C 41.7°F5.4°C 52% 4.0 mph S6.4 kmh S 8.1 mph13.0 kmh 29.99 in1015.6 mb 0.00 in0.0 mm 0.00 in0.0 mm 0.00 in0.0 mm
04:45 PM 58.9°F14.9°C 41.8°F5.4°C 53% Calm Calm 3.0 mph4.8 kmh 29.98 in1015.2 mb 0.00 in0.0 mm 0.00 in0.0 mm 0.00 in0.0 mm
05:00 PM 58.7°F14.8°C 41.6°F5.3°C 53% 5.0 mph SSW8.0 kmh SSW 6.1 mph9.8 kmh 29.97 in1014.9 mb 0.00 in0.0 mm 0.00 in0.0 mm 0.00 in0.0 mm
05:15 PM 58.5°F14.7°C 41.4°F5.2°C 53% 5.0 mph SSW8.0 kmh SSW 12.1 mph19.5 kmh 29.98 in1015.2 mb 0.00 in0.0 mm 0.00 in0.0 mm 0.00 in0.0 mm
05:30 PM 58.1°F14.5°C 41.6°F5.3°C 54% 9.0 mph S14.5 kmh S 15.1 mph24.3 kmh 29.98 in1015.2 mb 0.00 in0.0 mm 0.00 in0.0 mm 0.00 in0.0 mm
05:45 PM 57.8°F14.3°C 41.7°F5.4°C 55% 7.0 mph S11.3 kmh S 14.1 mph22.7 kmh 29.99 in1015.6 mb 0.00 in0.0 mm 0.00 in0.0 mm 0.00 in0.0 mm
06:00 PM 57.4°F14.1°C 41.8°F5.4°C 56% 12.0 mph S19.3 kmh S 13.1 mph21.1 kmh 30.00 in1015.9 mb 0.00 in0.0 mm 0.00 in0.0 mm 0.00 in0.0 mm
06:15 PM 56.9°F13.8°C 42.3°F5.7°C 58% 5.0 mph SW8.0 kmh SW 10.1 mph16.3 kmh 30.00 in1015.9 mb 0.00 in0.0 mm 0.00 in0.0 mm 0.00 in0.0 mm
06:30 PM 56.5°F13.6°C 42.3°F5.7°C 59% 5.0 mph SSW8.0 kmh SSW 13.1 mph21.1 kmh 30.00 in1015.9 mb 0.00 in0.0 mm 0.00 in0.0 mm 0.00 in0.0 mm
06:45 PM 56.1°F13.4°C 42.4°F5.8°C 60% 5.0 mph SW8.0 kmh SW 9.1 mph14.6 kmh 30.00 in1015.9 mb 0.00 in0.0 mm 0.00 in0.0 mm 0.00 in0.0 mm
07:00 PM 55.9°F13.3°C 42.6°F5.9°C 61% 3.0 mph SW4.8 kmh SW 7.1 mph11.4 kmh 30.00 in1015.9 mb 0.00 in0.0 mm 0.00 in0.0 mm 0.00 in0.0 mm
07:15 PM 55.5°F13.1°C 42.7°F5.9°C 62% 6.0 mph SW9.7 kmh SW 7.1 mph11.4 kmh 29.99 in1015.6 mb 0.00 in0.0 mm 0.00 in0.0 mm 0.00 in0.0 mm
07:30 PM 55.4°F13.0°C 42.6°F5.9°C 62% 4.0 mph SW6.4 kmh SW 5.1 mph8.2 kmh 30.00 in1015.9 mb 0.00 in0.0 mm 0.00 in0.0 mm 0.00 in0.0 mm
07:45 PM 55.5°F13.1°C 41.8°F5.4°C 60% 3.0 mph S4.8 kmh S 9.1 mph14.6 kmh 30.00 in1015.9 mb 0.00 in0.0 mm 0.00 in0.0 mm 0.00 in0.0 mm
08:00 PM 55.3°F12.9°C 42.1°F5.6°C 61% 4.0 mph SW6.4 kmh SW 7.1 mph11.4 kmh 29.99 in1015.6 mb 0.00 in0.0 mm 0.00 in0.0 mm 0.00 in0.0 mm
08:15 PM 55.4°F13.0°C 41.7°F5.4°C 60% 8.0 mph S12.9 kmh S 10.1 mph16.3 kmh 30.00 in1015.9 mb 0.00 in0.0 mm 0.00 in0.0 mm 0.00 in0.0 mm
08:30 PM 55.3°F12.9°C 41.6°F5.3°C 60% 4.0 mph SSW6.4 kmh SSW 8.1 mph13.0 kmh 29.99 in1015.6 mb 0.00 in0.0 mm 0.00 in0.0 mm 0.00 in0.0 mm
08:45 PM 55.1°F12.8°C 41.5°F5.3°C 60% 4.0 mph SSW6.4 kmh SSW 7.1 mph11.4 kmh 29.98 in1015.2 mb 0.00 in0.0 mm 0.00 in0.0 mm 0.00 in0.0 mm
09:00 PM 55.0°F12.8°C 41.8°F5.4°C 61% 6.0 mph S9.7 kmh S 6.1 mph9.8 kmh 29.97 in1014.9 mb 0.00 in0.0 mm 0.00 in0.0 mm 0.00 in0.0 mm
09:15 PM 54.9°F12.7°C 42.1°F5.6°C 62% 5.0 mph SW8.0 kmh SW 6.1 mph9.8 kmh 29.98 in1015.2 mb 0.00 in0.0 mm 0.00 in0.0 mm 0.00 in0.0 mm
09:30 PM 54.7°F12.6°C 42.3°F5.7°C 63% 6.0 mph S9.7 kmh S 7.1 mph11.4 kmh 29.97 in1014.9 mb 0.00 in0.0 mm 0.00 in0.0 mm 0.00 in0.0 mm
09:45 PM 54.6°F12.6°C 41.8°F5.4°C 62% 5.0 mph SSW8.0 kmh SSW 7.1 mph11.4 kmh 29.96 in1014.6 mb 0.00 in0.0 mm 0.00 in0.0 mm 0.00 in0.0 mm
10:00 PM 54.6°F12.6°C 42.3°F5.7°C 63% 6.0 mph S9.7 kmh S 10.1 mph16.3 kmh 29.96 in1014.6 mb 0.00 in0.0 mm 0.00 in0.0 mm 0.00 in0.0 mm
10:15 PM 54.5°F12.5°C 42.2°F5.7°C 63% 4.0 mph SW6.4 kmh SW 8.1 mph13.0 kmh 29.96 in1014.6 mb 0.00 in0.0 mm 0.00 in0.0 mm 0.00 in0.0 mm
10:30 PM 54.4°F12.4°C 42.9°F6.1°C 65% 8.0 mph SW12.9 kmh SW 8.1 mph13.0 kmh 29.95 in1014.2 mb 0.00 in0.0 mm 0.00 in0.0 mm 0.00 in0.0 mm
10:45 PM 54.4°F12.4°C 42.9°F6.1°C 65% 7.0 mph SSW11.3 kmh SSW 15.1 mph24.3 kmh 29.95 in1014.2 mb 0.00 in0.0 mm 0.00 in0.0 mm 0.00 in0.0 mm
11:00 PM 54.5°F12.5°C 43.0°F6.1°C 65% 5.0 mph S8.0 kmh S 8.1 mph13.0 kmh 29.94 in1013.9 mb 0.00 in0.0 mm 0.00 in0.0 mm 0.00 in0.0 mm
11:15 PM 54.4°F12.4°C 43.3°F6.3°C 66% 2.0 mph WSW3.2 kmh WSW 8.1 mph13.0 kmh 29.94 in1013.9 mb 0.00 in0.0 mm 0.00 in0.0 mm 0.00 in0.0 mm
11:30 PM 54.3°F12.4°C 43.6°F6.4°C 67% 3.0 mph SW4.8 kmh SW 3.0 mph4.8 kmh 29.95 in1014.2 mb 0.00 in0.0 mm 0.00 in0.0 mm 0.00 in0.0 mm
11:45 PM 54.3°F12.4°C 43.6°F6.4°C 67% 3.0 mph SSW4.8 kmh SSW 7.1 mph11.4 kmh 29.93 in1013.5 mb 0.00 in0.0 mm 0.00 in0.0 mm 0.00 in0.0 mm